createdAt,value
2022-10-26T00:02:05.400Z,7.10
2022-10-26T00:04:36.487Z,8.20
2022-10-26T00:07:07.209Z,8.40
2022-10-26T00:09:38.295Z,7.70
2022-10-26T00:12:09.713Z,8.50
2022-10-26T00:14:40.694Z,8.00
2022-10-26T00:17:12.137Z,6.70
2022-10-26T00:22:12.399Z,7.30
2022-10-26T00:24:43.181Z,6.30
2022-10-26T00:27:14.114Z,6.60
2022-10-26T00:29:45.203Z,7.30
2022-10-26T00:32:16.026Z,8.50
2022-10-26T00:34:47.082Z,10.60
2022-10-26T00:37:18.144Z,7.50
2022-10-26T00:39:49.349Z,6.80
2022-10-26T00:42:21.947Z,6.40
2022-10-26T00:45:01.799Z,6.60
2022-10-26T00:47:38.211Z,7.40
2022-10-26T00:50:13.551Z,5.80
2022-10-26T00:52:45.025Z,5.10
2022-10-26T00:55:21.273Z,6.80
2022-10-26T00:57:54.639Z,6.50
2022-10-26T01:00:25.571Z,5.50
2022-10-26T01:03:00.607Z,6.50
2022-10-26T01:05:32.947Z,6.80
2022-10-26T01:08:04.812Z,7.50
2022-10-26T01:10:36.383Z,6.70
2022-10-26T01:13:08.342Z,5.60
2022-10-26T01:15:47.645Z,7.10
2022-10-26T01:18:27.064Z,7.20
2022-10-26T01:21:29.335Z,6.60
2022-10-26T01:24:20.012Z,5.90
2022-10-26T01:27:02.711Z,6.20
2022-10-26T01:29:56.052Z,6.40
2022-10-26T01:32:32.251Z,7.60
2022-10-26T01:35:10.328Z,7.00
2022-10-26T01:37:47.540Z,5.70
2022-10-26T01:40:24.347Z,5.70
2022-10-26T01:42:59.589Z,5.00
2022-10-26T01:45:32.119Z,5.50
2022-10-26T01:48:05.491Z,6.10
2022-10-26T01:50:37.277Z,5.20
2022-10-26T01:53:08.376Z,4.80
2022-10-26T01:55:51.882Z,4.30
2022-10-26T02:01:24.280Z,5.90
2022-10-26T02:04:07.100Z,5.60
2022-10-26T02:06:48.243Z,5.10
2022-10-26T02:09:27.683Z,5.60
2022-10-26T02:11:59.601Z,6.30
2022-10-26T02:14:38.899Z,4.90
2022-10-26T02:17:18.272Z,7.10
2022-10-26T02:19:53.211Z,5.60
2022-10-26T02:22:30.078Z,5.20
2022-10-26T02:25:05.668Z,4.10
2022-10-26T02:27:42.576Z,4.20
2022-10-26T02:30:15.880Z,4.20
2022-10-26T02:32:51.812Z,4.00
2022-10-26T02:35:28.630Z,4.30
2022-10-26T02:38:04.140Z,4.80
2022-10-26T02:40:35.807Z,4.20
2022-10-26T02:43:10.230Z,5.70
2022-10-26T02:45:45.882Z,6.00
2022-10-26T02:48:17.779Z,5.30
2022-10-26T02:50:59.483Z,4.30
2022-10-26T02:53:35.942Z,5.60
2022-10-26T02:56:11.855Z,5.60
2022-10-26T02:58:50.732Z,5.10
2022-10-26T03:01:22.526Z,4.30
2022-10-26T03:03:58.119Z,4.50
2022-10-26T03:06:29.750Z,5.80
2022-10-26T03:09:00.818Z,4.10
2022-10-26T03:11:32.040Z,5.90
2022-10-26T03:14:02.977Z,5.90
2022-10-26T03:16:33.816Z,6.50
2022-10-26T03:19:04.858Z,5.60
2022-10-26T03:21:35.898Z,4.60
2022-10-26T03:26:36.716Z,3.70
2022-10-26T03:29:09.026Z,3.50
2022-10-26T03:31:39.975Z,3.90
2022-10-26T03:34:10.859Z,3.80
2022-10-26T03:36:41.754Z,4.10
2022-10-26T03:39:12.856Z,3.70
2022-10-26T03:41:44.346Z,3.70
2022-10-26T03:44:15.296Z,4.30
2022-10-26T03:46:46.616Z,5.70
2022-10-26T03:49:17.658Z,4.50
2022-10-26T03:51:49.343Z,4.70
2022-10-26T03:54:20.277Z,4.40
2022-10-26T03:56:55.125Z,4.90
2022-10-26T03:59:26.526Z,5.60
2022-10-26T04:01:58.093Z,5.00
2022-10-26T04:04:29.442Z,5.40
2022-10-26T04:07:00.533Z,4.30
2022-10-26T04:09:31.319Z,4.60
2022-10-26T04:12:02.025Z,3.80
2022-10-26T04:14:32.871Z,4.20
2022-10-26T04:17:03.654Z,4.40
2022-10-26T04:19:34.571Z,4.00
2022-10-26T04:22:05.742Z,5.10
2022-10-26T04:24:36.594Z,4.70
2022-10-26T04:27:07.470Z,5.40
2022-10-26T04:29:38.475Z,5.20
2022-10-26T04:32:09.671Z,4.90
2022-10-26T04:34:41.053Z,4.90
2022-10-26T04:37:12.254Z,5.10
2022-10-26T04:39:43.523Z,5.80
2022-10-26T04:42:14.598Z,6.60
2022-10-26T04:47:15.226Z,5.70
2022-10-26T04:49:46.149Z,6.20
2022-10-26T04:52:17.033Z,5.60
2022-10-26T04:54:48.002Z,5.70
2022-10-26T04:57:18.844Z,11.60
2022-10-26T04:59:49.872Z,7.90
2022-10-26T05:02:21.590Z,6.80
2022-10-26T05:04:52.874Z,6.20
2022-10-26T05:07:24.089Z,8.90
2022-10-26T05:09:54.982Z,9.10
2022-10-26T05:12:26.159Z,9.10
2022-10-26T05:15:02.964Z,6.40
2022-10-26T05:17:36.096Z,5.60
2022-10-26T05:20:13.098Z,8.50
2022-10-26T05:22:44.170Z,9.10
2022-10-26T05:25:14.960Z,8.50
2022-10-26T05:27:45.782Z,7.30
2022-10-26T05:30:17.037Z,8.40
2022-10-26T05:35:17.897Z,7.70
2022-10-26T05:37:48.937Z,7.90
2022-10-26T05:40:20.400Z,8.10
2022-10-26T05:42:52.121Z,8.70
2022-10-26T05:45:23.285Z,8.60
2022-10-26T05:47:57.384Z,9.30
2022-10-26T05:50:31.020Z,9.90
2022-10-26T05:55:32.537Z,8.70
2022-10-26T05:58:04.175Z,7.70
2022-10-26T06:00:36.390Z,6.50
2022-10-26T06:03:15.911Z,6.10
2022-10-26T06:05:56.050Z,6.00
2022-10-26T06:08:29.418Z,7.40
2022-10-26T06:11:02.845Z,6.40
2022-10-26T06:13:35.026Z,5.70
2022-10-26T06:16:23.828Z,6.10
2022-10-26T06:19:03.552Z,5.00
2022-10-26T06:21:47.159Z,4.80
2022-10-26T06:24:26.040Z,5.50
2022-10-26T06:27:03.188Z,8.30
2022-10-26T06:29:50.142Z,7.30
2022-10-26T06:32:23.711Z,6.50
2022-10-26T06:35:04.882Z,9.00
2022-10-26T06:37:38.778Z,9.80
2022-10-26T06:40:15.775Z,9.30
2022-10-26T06:42:47.891Z,13.60
2022-10-26T06:45:20.682Z,16.60
2022-10-26T06:47:59.451Z,12.50
2022-10-26T06:50:38.146Z,19.00
2022-10-26T06:53:22.968Z,24.70
2022-10-26T06:55:54.509Z,19.50
2022-10-26T06:58:29.180Z,15.60
2022-10-26T07:01:00.778Z,13.00
2022-10-26T07:03:31.671Z,15.40
2022-10-26T07:06:02.678Z,11.80
2022-10-26T07:11:04.973Z,7.70
2022-10-26T07:13:36.122Z,8.40
2022-10-26T07:16:08.320Z,8.20
2022-10-26T07:18:39.287Z,6.30
2022-10-26T07:21:11.065Z,9.20
2022-10-26T07:23:42.031Z,5.80
2022-10-26T07:26:13.028Z,6.00
2022-10-26T07:31:13.658Z,5.10
2022-10-26T07:33:45.422Z,4.00
2022-10-26T07:36:16.154Z,4.60
2022-10-26T07:38:47.352Z,3.90
2022-10-26T07:41:18.782Z,4.40
2022-10-26T07:43:50.849Z,3.80
2022-10-26T07:46:21.656Z,4.60
2022-10-26T07:51:22.574Z,3.90
2022-10-26T07:53:53.872Z,3.60
2022-10-26T07:56:24.703Z,4.50
2022-10-26T07:58:56.429Z,4.80
2022-10-26T08:01:27.696Z,4.20
2022-10-26T08:03:58.831Z,5.20
2022-10-26T08:06:29.772Z,4.40
2022-10-26T08:11:30.266Z,5.20
2022-10-26T08:14:01.381Z,5.00
2022-10-26T08:19:02.328Z,6.00
2022-10-26T08:24:17.879Z,5.00
2022-10-26T08:26:48.869Z,5.30
2022-10-26T08:29:19.906Z,6.60
2022-10-26T08:34:20.774Z,6.30
2022-10-26T08:39:21.980Z,6.70
2022-10-26T08:41:57.340Z,6.90
2022-10-26T08:44:45.954Z,6.70
2022-10-26T08:47:27.415Z,7.50
2022-10-26T08:50:07.928Z,7.60
2022-10-26T08:52:50.507Z,7.00
2022-10-26T08:55:26.685Z,6.80
2022-10-26T08:57:58.037Z,7.10
2022-10-26T09:00:31.448Z,7.00
2022-10-26T09:03:13.148Z,6.40
2022-10-26T09:05:54.629Z,7.20
2022-10-26T09:08:35.811Z,8.40
2022-10-26T09:11:14.373Z,7.00
2022-10-26T09:14:00.062Z,7.50
2022-10-26T09:16:40.007Z,6.20
2022-10-26T09:19:30.121Z,7.10
2022-10-26T09:22:09.762Z,7.70
2022-10-26T09:24:44.264Z,7.30
2022-10-26T09:27:22.431Z,7.90
2022-10-26T09:29:55.041Z,7.70
2022-10-26T09:32:32.374Z,7.60
2022-10-26T09:35:11.298Z,6.90
2022-10-26T09:37:47.189Z,7.60
2022-10-26T09:40:24.464Z,7.50
2022-10-26T09:43:02.330Z,8.50
2022-10-26T09:45:36.613Z,7.80
2022-10-26T09:48:13.845Z,7.10
2022-10-26T09:50:49.723Z,7.50
2022-10-26T09:53:20.957Z,7.30
2022-10-26T09:55:57.694Z,8.40
2022-10-26T09:58:31.681Z,7.90
2022-10-26T10:01:03.727Z,8.40
2022-10-26T10:03:35.179Z,7.90
2022-10-26T10:06:20.426Z,9.60
2022-10-26T10:09:11.084Z,8.00
2022-10-26T10:11:44.383Z,8.10
2022-10-26T10:14:18.918Z,7.70
2022-10-26T10:17:00.077Z,7.40
2022-10-26T10:19:33.167Z,6.90
2022-10-26T10:22:10.919Z,6.30
2022-10-26T10:24:44.854Z,6.40
2022-10-26T10:27:21.408Z,5.90
2022-10-26T10:29:58.462Z,6.10
2022-10-26T10:32:36.991Z,7.00
2022-10-26T10:35:30.193Z,5.70
2022-10-26T10:38:01.737Z,6.50
2022-10-26T10:40:34.105Z,7.10
2022-10-26T10:43:13.348Z,6.20
2022-10-26T10:45:50.409Z,6.10
2022-10-26T10:48:24.254Z,6.30
2022-10-26T10:50:57.705Z,6.00
2022-10-26T10:53:34.483Z,5.50
2022-10-26T10:58:51.702Z,4.90
2022-10-26T11:01:28.206Z,5.20
2022-10-26T11:04:21.442Z,5.00
2022-10-26T11:06:53.053Z,5.00
2022-10-26T11:09:29.435Z,4.00
2022-10-26T11:12:04.942Z,4.50
2022-10-26T11:14:40.142Z,4.80
2022-10-26T11:17:19.465Z,3.10
2022-10-26T11:19:55.714Z,2.80
2022-10-26T11:22:31.033Z,3.30
2022-10-26T11:25:06.225Z,3.10
2022-10-26T11:27:45.991Z,3.30
2022-10-26T11:30:20.282Z,2.00
2022-10-26T11:32:56.016Z,2.50
2022-10-26T11:35:31.807Z,2.40
2022-10-26T11:38:10.924Z,1.90
2022-10-26T11:40:46.527Z,2.40
2022-10-26T11:43:25.229Z,1.80
2022-10-26T11:46:06.687Z,1.60
2022-10-26T11:48:44.150Z,1.80
2022-10-26T11:51:21.778Z,1.40
2022-10-26T11:53:53.894Z,1.50
2022-10-26T11:56:31.368Z,1.20
2022-10-26T12:01:38.689Z,1.30
2022-10-26T12:04:11.249Z,1.30
2022-10-26T12:06:42.559Z,1.20
2022-10-26T12:09:19.476Z,1.10
2022-10-26T12:11:57.468Z,1.10
2022-10-26T12:14:38.425Z,1.30
2022-10-26T12:17:16.448Z,1.20
2022-10-26T12:19:52.973Z,1.20
2022-10-26T12:22:30.531Z,1.00
2022-10-26T12:25:22.513Z,0.90
2022-10-26T12:27:56.028Z,1.20
2022-10-26T12:30:32.737Z,1.30
2022-10-26T12:33:05.390Z,0.80
2022-10-26T12:35:46.768Z,0.90
2022-10-26T12:38:50.802Z,1.00
2022-10-26T12:41:33.339Z,0.80
2022-10-26T12:44:37.682Z,0.90
2022-10-26T12:47:09.306Z,0.90
2022-10-26T12:50:02.992Z,0.70
2022-10-26T12:52:44.675Z,0.70
2022-10-26T12:56:06.607Z,0.70
2022-10-26T12:59:05.138Z,0.90
2022-10-26T13:02:16.413Z,0.70
2022-10-26T13:05:26.615Z,0.70
2022-10-26T13:08:05.689Z,1.40
2022-10-26T13:10:38.210Z,0.70
2022-10-26T13:13:10.464Z,1.00
2022-10-26T13:15:53.081Z,0.90
2022-10-26T13:18:24.959Z,1.00
2022-10-26T13:21:04.044Z,0.50
2022-10-26T13:23:39.984Z,0.70
2022-10-26T13:26:13.373Z,0.80
2022-10-26T13:28:50.839Z,0.70
2022-10-26T13:32:01.352Z,1.00
2022-10-26T13:34:34.685Z,0.80
2022-10-26T13:37:14.937Z,0.90
2022-10-26T13:39:47.559Z,0.90
2022-10-26T13:42:22.809Z,1.00
2022-10-26T13:44:58.391Z,0.90
2022-10-26T13:47:40.420Z,1.00
2022-10-26T13:50:17.656Z,1.00
2022-10-26T13:52:52.861Z,1.50
2022-10-26T13:55:29.536Z,1.60
2022-10-26T13:58:19.110Z,1.70
2022-10-26T14:01:13.957Z,0.90
2022-10-26T14:03:45.569Z,2.30
2022-10-26T14:06:22.955Z,5.50
2022-10-26T14:08:56.576Z,1.20
2022-10-26T14:11:33.628Z,1.50
2022-10-26T14:14:05.657Z,1.10
2022-10-26T14:16:37.049Z,0.90
2022-10-26T14:19:08.408Z,1.10
2022-10-26T14:21:49.889Z,0.80
2022-10-26T14:24:45.261Z,1.30
2022-10-26T14:27:19.994Z,1.20
2022-10-26T14:30:10.197Z,1.60
2022-10-26T14:32:42.885Z,1.40
2022-10-26T14:35:16.576Z,1.30
2022-10-26T14:37:52.452Z,1.50
2022-10-26T14:40:29.423Z,1.20
2022-10-26T14:43:03.360Z,1.30
2022-10-26T14:45:48.004Z,1.10
2022-10-26T14:48:32.889Z,1.20
2022-10-26T14:51:09.448Z,1.70
2022-10-26T14:53:42.416Z,1.40
2022-10-26T14:56:24.876Z,1.40
2022-10-26T14:58:56.646Z,1.70
2022-10-26T15:01:36.291Z,1.40
2022-10-26T15:04:08.734Z,1.60
2022-10-26T15:06:44.797Z,1.40
2022-10-26T15:09:33.429Z,1.30
2022-10-26T15:12:07.361Z,1.70
2022-10-26T15:14:38.423Z,2.60
2022-10-26T15:19:40.143Z,1.60
2022-10-26T15:22:32.278Z,1.70
2022-10-26T15:25:06.749Z,2.70
2022-10-26T15:27:37.702Z,2.50
2022-10-26T15:30:19.513Z,2.20
2022-10-26T15:32:50.956Z,2.70
2022-10-26T15:35:33.124Z,3.00
2022-10-26T15:38:04.090Z,3.10
2022-10-26T15:40:37.051Z,3.30
2022-10-26T15:43:11.885Z,4.40
2022-10-26T15:45:49.183Z,4.90
2022-10-26T15:48:25.662Z,4.60
2022-10-26T15:50:56.448Z,4.50
2022-10-26T15:53:28.549Z,5.40
2022-10-26T15:56:01.541Z,6.60
2022-10-26T15:58:34.526Z,7.90
2022-10-26T16:01:05.925Z,7.90
2022-10-26T16:03:37.192Z,6.00
2022-10-26T16:06:14.987Z,4.80
2022-10-26T16:08:50.968Z,17.60
2022-10-26T16:11:22.084Z,28.30
2022-10-26T16:13:54.502Z,19.10
2022-10-26T16:16:27.048Z,21.70
2022-10-26T16:21:43.812Z,15.10
2022-10-26T16:24:14.984Z,14.20
2022-10-26T16:29:15.783Z,22.80
2022-10-26T16:31:47.153Z,16.20
2022-10-26T16:34:18.424Z,13.60
2022-10-26T16:36:49.287Z,17.20
2022-10-26T16:39:20.478Z,15.30
2022-10-26T16:41:52.618Z,14.20
2022-10-26T16:44:23.851Z,17.30
2022-10-26T16:49:23.961Z,21.10
2022-10-26T16:51:55.030Z,14.60
2022-10-26T16:54:26.381Z,17.90
2022-10-26T16:56:57.387Z,23.20
2022-10-26T16:59:28.125Z,20.50
2022-10-26T17:01:59.302Z,23.20
2022-10-26T17:04:30.488Z,22.40
2022-10-26T17:09:30.728Z,17.70
2022-10-26T17:12:02.339Z,18.20
2022-10-26T17:14:33.303Z,24.90
2022-10-26T17:17:04.571Z,21.80
2022-10-26T17:19:35.978Z,21.60
2022-10-26T17:22:08.762Z,19.70
2022-10-26T17:24:39.964Z,28.20
2022-10-26T17:29:40.290Z,23.60
2022-10-26T17:32:11.180Z,29.20
2022-10-26T17:37:11.367Z,21.20
2022-10-26T17:39:42.407Z,19.80
2022-10-26T17:42:13.480Z,18.90
2022-10-26T17:44:44.636Z,16.20
2022-10-26T17:47:15.874Z,17.40
2022-10-26T17:49:47.396Z,19.20
2022-10-26T17:52:19.979Z,18.80
2022-10-26T17:54:51.425Z,19.10
2022-10-26T17:57:22.574Z,18.90
2022-10-26T17:59:53.918Z,18.20
2022-10-26T18:02:25.294Z,15.90
2022-10-26T18:04:56.836Z,14.10
2022-10-26T18:07:31.037Z,14.20
2022-10-26T18:10:13.880Z,14.20
2022-10-26T18:12:53.951Z,15.00
2022-10-26T18:15:25.303Z,14.60
2022-10-26T18:17:58.449Z,13.30
2022-10-26T18:20:32.566Z,13.90
2022-10-26T18:23:08.544Z,10.70
2022-10-26T18:25:39.870Z,8.70
2022-10-26T18:30:43.286Z,13.60
2022-10-26T18:35:49.820Z,13.20
2022-10-26T18:38:21.120Z,12.70
2022-10-26T18:40:56.838Z,12.30
2022-10-26T18:43:29.126Z,11.70
2022-10-26T18:46:08.739Z,13.50
2022-10-26T18:48:40.626Z,14.30
2022-10-26T18:51:14.404Z,12.10
2022-10-26T18:53:52.392Z,12.60
2022-10-26T18:56:25.344Z,14.30
2022-10-26T18:59:03.162Z,15.40
2022-10-26T19:01:38.041Z,12.00
2022-10-26T19:04:11.108Z,12.90
2022-10-26T19:06:47.643Z,11.80
2022-10-26T19:09:20.215Z,14.00
2022-10-26T19:11:52.038Z,11.70
2022-10-26T19:14:23.370Z,13.60
2022-10-26T19:16:54.737Z,13.70
2022-10-26T19:19:26.184Z,13.90
2022-10-26T19:21:59.694Z,14.60
2022-10-26T19:24:30.791Z,14.40
2022-10-26T19:27:02.095Z,13.80
2022-10-26T19:29:33.264Z,14.70
2022-10-26T19:34:34.799Z,13.20
2022-10-26T19:37:06.294Z,14.10
2022-10-26T19:39:37.805Z,14.20
2022-10-26T19:42:08.995Z,18.60
2022-10-26T19:44:39.988Z,18.90
2022-10-26T19:49:40.877Z,18.10
2022-10-26T19:52:12.041Z,18.80
2022-10-26T19:54:43.137Z,16.90
2022-10-26T19:57:14.200Z,19.10
2022-10-26T19:59:45.547Z,18.50
2022-10-26T20:02:16.725Z,15.60
2022-10-26T20:07:17.556Z,12.10
2022-10-26T20:09:48.803Z,12.90
2022-10-26T20:12:19.888Z,13.20
2022-10-26T20:14:50.559Z,12.80
2022-10-26T20:17:23.917Z,12.30
2022-10-26T20:19:57.079Z,12.50
2022-10-26T20:22:27.904Z,13.00
2022-10-26T20:27:28.629Z,12.20
2022-10-26T20:29:59.696Z,11.60
2022-10-26T20:32:30.529Z,12.60
2022-10-26T20:35:01.657Z,14.30
2022-10-26T20:37:34.035Z,13.60
2022-10-26T20:40:07.530Z,11.90
2022-10-26T20:42:39.696Z,11.70
2022-10-26T20:45:16.925Z,12.70
2022-10-26T20:47:49.252Z,12.60
2022-10-26T20:50:21.827Z,12.20
2022-10-26T20:53:00.606Z,12.40
2022-10-26T20:55:37.038Z,11.60
2022-10-26T20:58:15.270Z,11.60
2022-10-26T21:00:52.355Z,11.90
2022-10-26T21:03:23.480Z,11.40
2022-10-26T21:05:54.958Z,12.10
2022-10-26T21:08:25.906Z,12.20
2022-10-26T21:13:26.121Z,10.20
2022-10-26T21:15:57.403Z,10.60
2022-10-26T21:18:28.510Z,10.50
2022-10-26T21:21:01.566Z,11.10
2022-10-26T21:23:36.484Z,12.30
2022-10-26T21:26:08.147Z,12.90
2022-10-26T21:28:41.618Z,11.40
2022-10-26T21:31:15.259Z,13.70
2022-10-26T21:33:47.214Z,12.40
2022-10-26T21:36:18.351Z,11.20
2022-10-26T21:43:59.259Z,9.90
2022-10-26T21:46:40.740Z,11.80
2022-10-26T21:51:43.387Z,11.00
2022-10-26T21:54:14.571Z,11.80
2022-10-26T21:56:46.080Z,12.10
2022-10-26T21:59:17.051Z,11.10
2022-10-26T22:01:48.497Z,10.90
2022-10-26T22:04:19.567Z,10.70
2022-10-26T22:09:20.471Z,10.90
2022-10-26T22:11:51.631Z,10.80
2022-10-26T22:14:22.831Z,11.80
2022-10-26T22:16:53.872Z,11.50
2022-10-26T22:21:54.144Z,10.40
2022-10-26T22:24:25.083Z,10.50
2022-10-26T22:26:56.092Z,10.30
2022-10-26T22:29:27.036Z,11.00
2022-10-26T22:31:57.831Z,9.90
2022-10-26T22:34:28.796Z,9.50
2022-10-26T22:36:59.755Z,9.40
2022-10-26T22:39:31.028Z,10.20
2022-10-26T22:42:01.999Z,10.20
2022-10-26T22:44:33.149Z,9.60
2022-10-26T22:47:04.176Z,9.60
2022-10-26T22:49:34.938Z,9.60
2022-10-26T22:52:06.128Z,9.50
2022-10-26T22:54:37.175Z,9.50
2022-10-26T22:57:08.299Z,9.80
2022-10-26T22:59:39.500Z,10.00
2022-10-26T23:02:10.720Z,10.70
2022-10-26T23:04:42.092Z,9.90
2022-10-26T23:07:13.101Z,10.00
2022-10-26T23:12:13.421Z,10.10
2022-10-26T23:14:44.587Z,9.10
2022-10-26T23:17:15.631Z,9.90
2022-10-26T23:22:15.685Z,9.20
2022-10-26T23:27:16.456Z,9.10
2022-10-26T23:32:16.658Z,10.50
2022-10-26T23:34:47.576Z,10.80
2022-10-26T23:37:19.683Z,10.50
2022-10-26T23:39:50.665Z,11.00
2022-10-26T23:44:51.459Z,10.80
2022-10-26T23:47:22.313Z,9.80
2022-10-26T23:49:53.473Z,9.40
2022-10-26T23:52:24.163Z,8.30
2022-10-26T23:54:55.205Z,9.00
2022-10-26T23:57:26.079Z,8.80
2022-10-26T23:59:56.991Z,8.70
